Time;durP1;ratioP1;P1;durP2;ratioP2;P2;SDS_P1;SDS_P2;PMS_P1;PMS_P2;Temp;Humidity;BMP_temperature;BMP_pressure;BME280_temperature;BME280_humidity;BME280_pressure;Samples;Min_cycle;Max_cycle;Signal;HPM_P1;HPM_P2
2023/08/09 00:00:17;;;;;;;8.70;3.00;;;;;;;12.51;100.00;100108.38;215359;1294;140771;-88
2023/08/09 00:05:17;;;;;;;4.90;2.60;;;;;;;12.46;100.00;100108.45;215947;1294;139024;-89
2023/08/09 00:10:18;;;;;;;6.30;2.60;;;;;;;12.41;100.00;100122.27;215297;1293;140847;-89
2023/08/09 00:15:18;;;;;;;5.50;2.60;;;;;;;12.37;100.00;100116.75;215645;1293;138689;-87
2023/08/09 00:20:20;;;;;;;7.40;3.00;;;;;;;12.34;100.00;100122.84;215445;1292;141093;-89
2023/08/09 00:25:21;;;;;;;7.00;3.00;;;;;;;12.28;100.00;100128.35;215742;1294;138906;-88
2023/08/09 00:30:22;;;;;;;7.20;2.90;;;;;;;12.23;100.00;100133.80;215357;1292;141483;-87
2023/08/09 00:35:23;;;;;;;6.50;3.00;;;;;;;12.19;100.00;100133.23;215760;1292;139916;-88
2023/08/09 00:40:23;;;;;;;7.20;2.30;;;;;;;12.17;100.00;100141.99;215340;1294;139510;-88
2023/08/09 00:45:24;;;;;;;6.90;2.30;;;;;;;12.16;100.00;100146.72;215856;1294;139600;-87
2023/08/09 00:50:24;;;;;;;6.30;3.10;;;;;;;12.16;100.00;100152.23;215336;1294;139847;-89
2023/08/09 00:55:25;;;;;;;6.60;3.00;;;;;;;12.14;100.00;100161.93;215677;1294;139529;-88
2023/08/09 01:00:25;;;;;;;7.00;2.80;;;;;;;12.13;100.00;100155.16;215278;1293;140152;-90
2023/08/09 01:05:37;;;;;;;9.10;3.10;;;;;;;12.13;100.00;100144.27;215668;1294;138576;-93
2023/08/09 01:10:46;;;;;;;11.30;3.10;;;;;;;12.13;100.00;100134.19;215315;1294;139159;-88
2023/08/09 01:15:50;;;;;;;8.40;3.30;;;;;;;12.13;100.00;100141.91;215841;1292;139076;-90
2023/08/09 01:20:53;;;;;;;8.30;3.10;;;;;;;12.14;100.00;100148.38;215348;1293;139965;-89
2023/08/09 01:25:53;;;;;;;15.10;4.00;;;;;;;12.14;100.00;100135.92;215742;1293;139358;-90
2023/08/09 01:30:54;;;;;;;6.80;2.90;;;;;;;12.15;100.00;100116.30;215339;1294;139803;-92
2023/08/09 01:36:03;;;;;;;5.50;3.00;;;;;;;12.16;100.00;100098.33;215799;1297;138741;-87
2023/08/09 01:41:06;;;;;;;6.60;3.20;;;;;;;12.18;100.00;100110.48;215281;1297;140205;-88
2023/08/09 01:46:07;;;;;;;6.00;2.90;;;;;;;12.18;100.00;100108.25;215929;1294;139622;-91
2023/08/09 01:51:07;;;;;;;4.60;2.50;;;;;;;12.20;100.00;100111.24;215356;1294;139306;-87
2023/08/09 01:56:08;;;;;;;7.10;2.30;;;;;;;12.19;100.00;100119.77;215974;1293;98295;-88
2023/08/09 02:01:08;;;;;;;4.30;2.50;;;;;;;12.21;100.00;100117.23;215058;1294;140035;-88
2023/08/09 02:06:09;;;;;;;7.80;2.70;;;;;;;12.21;100.00;100113.14;215860;1294;139170;-88
2023/08/09 02:11:09;;;;;;;8.00;2.80;;;;;;;12.20;100.00;100114.48;215390;1293;141561;-89
2023/08/09 02:16:10;;;;;;;3.90;1.90;;;;;;;12.19;100.00;100121.11;215739;1293;138657;-86
2023/08/09 02:21:11;;;;;;;5.20;2.30;;;;;;;12.16;100.00;100118.98;215425;1293;141279;-88
2023/08/09 02:26:11;;;;;;;6.30;2.20;;;;;;;12.10;100.00;100121.66;216055;1294;96589;-88
2023/08/09 02:31:11;;;;;;;4.70;2.30;;;;;;;12.06;100.00;100126.15;215419;1293;140243;-88
2023/08/09 02:36:12;;;;;;;4.40;2.10;;;;;;;11.99;100.00;100130.09;215874;1294;138727;-90
2023/08/09 02:41:12;;;;;;;5.10;2.50;;;;;;;11.92;100.00;100133.80;215289;1297;140120;-87
2023/08/09 02:46:13;;;;;;;8.80;2.70;;;;;;;11.88;100.00;100141.89;215899;1295;139798;-88
2023/08/09 02:51:13;;;;;;;6.00;2.50;;;;;;;11.85;100.00;100145.60;215285;1295;140661;-89
2023/08/09 02:56:13;;;;;;;5.50;2.70;;;;;;;11.82;100.00;100141.98;215939;1293;96720;-90
2023/08/09 03:01:14;;;;;;;5.50;2.30;;;;;;;11.81;100.00;100145.82;215213;1294;140002;-89
2023/08/09 03:06:14;;;;;;;7.20;2.40;;;;;;;11.79;100.00;100156.53;215906;1294;138771;-87
2023/08/09 03:11:17;;;;;;;9.20;2.90;;;;;;;11.77;100.00;100163.84;215332;1293;140609;-87
2023/08/09 03:16:18;;;;;;;7.50;3.20;;;;;;;11.74;100.00;100175.67;215816;1294;138754;-89
2023/08/09 03:21:19;;;;;;;7.30;3.50;;;;;;;11.74;100.00;100173.86;215400;1293;142156;-89
2023/08/09 03:26:19;;;;;;;7.90;3.30;;;;;;;11.75;100.00;100166.37;215846;1293;96528;-88
2023/08/09 03:31:19;;;;;;;7.10;3.90;;;;;;;11.76;100.00;100157.02;215373;1293;139789;-88
2023/08/09 03:36:20;;;;;;;9.50;3.80;;;;;;;11.77;100.00;100157.48;215887;1293;139323;-88
2023/08/09 03:41:20;;;;;;;13.00;4.90;;;;;;;11.78;100.00;100147.48;215388;1295;140519;-88
2023/08/09 03:46:20;;;;;;;10.60;5.00;;;;;;;11.80;100.00;100156.23;215721;1294;138896;-89
2023/08/09 03:51:21;;;;;;;12.80;4.80;;;;;;;11.80;100.00;100156.46;215190;1294;140939;-91
2023/08/09 03:56:21;;;;;;;8.50;4.60;;;;;;;11.82;100.00;100144.17;215830;1292;96529;-88
2023/08/09 04:01:22;;;;;;;10.50;5.40;;;;;;;11.85;100.00;100146.55;215318;1297;141180;-87
2023/08/09 04:06:22;;;;;;;9.10;5.00;;;;;;;11.87;100.00;100141.73;215676;1293;139964;-88
2023/08/09 04:11:22;;;;;;;8.50;5.30;;;;;;;11.90;100.00;100154.27;215355;1293;140028;-89
2023/08/09 04:16:23;;;;;;;10.60;5.00;;;;;;;11.93;100.00;100159.01;215968;1294;137444;-88
2023/08/09 04:21:24;;;;;;;12.60;5.70;;;;;;;11.94;100.00;100167.51;215349;1294;139723;-88
2023/08/09 04:26:24;;;;;;;14.10;6.50;;;;;;;11.96;100.00;100165.54;215916;1295;96537;-89
2023/08/09 04:31:25;;;;;;;11.40;6.20;;;;;;;12.01;100.00;100169.49;215288;1295;140475;-90
2023/08/09 04:36:26;;;;;;;13.50;6.30;;;;;;;12.06;100.00;100169.96;215810;1294;138859;-89
2023/08/09 04:41:26;;;;;;;10.90;6.30;;;;;;;12.11;100.00;100167.29;215254;1294;140873;-88
2023/08/09 04:46:26;;;;;;;10.00;6.20;;;;;;;12.16;100.00;100165.09;215702;1294;138807;-89
2023/08/09 04:51:27;;;;;;;11.60;6.30;;;;;;;12.21;100.00;100170.77;215066;1294;140790;-91
2023/08/09 04:56:28;;;;;;;16.90;6.90;;;;;;;12.26;100.00;100181.56;215889;1297;96626;-93
2023/08/09 05:01:28;;;;;;;10.60;5.60;;;;;;;12.34;100.00;100192.77;215217;1293;140581;-90
2023/08/09 05:06:28;;;;;;;10.60;5.70;;;;;;;12.43;100.00;100191.50;215767;1295;138651;-89
2023/08/09 05:11:29;;;;;;;11.10;5.50;;;;;;;12.52;100.00;100203.49;215407;1294;140954;-92
2023/08/09 05:16:29;;;;;;;9.20;4.70;;;;;;;12.60;100.00;100199.85;215607;1293;139965;-90
2023/08/09 05:21:29;;;;;;;9.10;5.20;;;;;;;12.71;100.00;100201.18;215351;1293;141818;-90
2023/08/09 05:26:30;;;;;;;10.00;5.00;;;;;;;12.81;100.00;100194.45;215890;1293;97370;-89
2023/08/09 05:31:30;;;;;;;11.80;5.70;;;;;;;12.92;100.00;100196.88;215360;1294;140689;-91
2023/08/09 05:42:48;;;;;;;;;;;;;;;13.34;100.00;100198.20;215782;1295;140500;-94
2023/08/09 05:48:06;;;;;;;9.90;4.70;;;;;;;13.57;100.00;100194.55;216366;1294;124064;-95
2023/08/09 05:53:16;;;;;;;9.50;4.30;;;;;;;13.82;100.00;100202.02;215833;1292;139532;-94
2023/08/09 05:58:20;;;;;;;6.60;3.40;;;;;;;14.06;100.00;100191.50;216225;1297;137912;-93
2023/08/09 06:03:21;;;;;;;7.70;3.40;;;;;;;14.26;100.00;100197.95;215504;1295;141396;-91
2023/08/09 06:08:21;;;;;;;8.70;3.40;;;;;;;14.44;100.00;100206.05;216016;1295;96552;-93
2023/08/09 06:13:21;;;;;;;8.40;3.20;;;;;;;14.59;100.00;100221.89;215417;1295;140169;-92
2023/08/09 06:18:22;;;;;;;6.50;3.20;;;;;;;14.72;100.00;100223.20;215882;1293;138814;-94
2023/08/09 06:23:23;;;;;;;13.10;3.70;;;;;;;14.82;100.00;100230.32;215192;1295;141417;-92
2023/08/09 06:28:24;;;;;;;8.10;3.90;;;;;;;14.83;100.00;100231.17;215858;1293;139951;-89
2023/08/09 06:33:25;;;;;;;11.60;3.50;;;;;;;14.82;100.00;100224.92;215377;1293;140781;-90
2023/08/09 06:38:25;;;;;;;7.90;4.00;;;;;;;14.82;100.00;100224.77;215856;1293;96554;-90
2023/08/09 06:43:25;;;;;;;13.10;4.50;;;;;;;14.79;100.00;100226.31;215286;1295;139300;-90
2023/08/09 06:48:29;;;;;;;15.10;6.40;;;;;;;14.82;100.00;100225.96;215804;1294;138742;-88
2023/08/09 06:53:29;;;;;;;9.00;4.30;;;;;;;14.90;100.00;100236.95;215276;1295;140369;-88
2023/08/09 06:58:30;;;;;;;10.10;5.00;;;;;;;14.97;100.00;100242.84;215891;1293;138742;-90
2023/08/09 07:03:30;;;;;;;9.40;4.40;;;;;;;15.02;100.00;100251.18;215185;1293;140833;-90
2023/08/09 07:08:30;;;;;;;10.20;4.50;;;;;;;15.01;100.00;100254.98;215808;1297;97074;-90
2023/08/09 07:13:32;;;;;;;9.90;5.20;;;;;;;15.05;100.00;100252.96;215333;1297;141003;-90
2023/08/09 07:18:33;;;;;;;10.10;5.10;;;;;;;15.05;100.00;100255.98;215807;1297;138648;-91
2023/08/09 07:23:34;;;;;;;10.60;5.10;;;;;;;15.01;100.00;100259.52;215178;1294;140353;-89
2023/08/09 07:28:34;;;;;;;9.30;4.70;;;;;;;14.95;100.00;100257.42;215735;1297;138859;-86
2023/08/09 07:33:34;;;;;;;9.20;5.10;;;;;;;14.87;100.00;100260.27;215293;1295;140155;-87
2023/08/09 07:38:36;;;;;;;10.70;4.80;;;;;;;14.80;100.00;100270.54;215963;1297;96622;-86
2023/08/09 07:43:37;;;;;;;12.70;6.00;;;;;;;14.76;100.00;100271.53;215365;1294;141292;-86
2023/08/09 07:48:37;;;;;;;11.80;5.40;;;;;;;14.68;100.00;100275.71;215745;1295;139162;-87
2023/08/09 07:53:39;;;;;;;10.00;5.10;;;;;;;14.66;100.00;100269.95;215393;1293;140784;-87
2023/08/09 07:58:39;;;;;;;11.30;5.50;;;;;;;14.74;100.00;100272.89;215755;1297;138994;-88
2023/08/09 08:03:40;;;;;;;11.00;5.30;;;;;;;14.79;100.00;100280.61;215320;1297;139902;-87
2023/08/09 08:08:41;;;;;;;10.70;5.10;;;;;;;14.79;100.00;100288.91;215858;1295;96629;-86
2023/08/09 08:13:41;;;;;;;12.10;5.70;;;;;;;14.79;100.00;100300.80;215352;1297;141716;-85
2023/08/09 08:18:42;;;;;;;12.10;6.10;;;;;;;14.73;100.00;100302.83;215858;1293;138592;-87
2023/08/09 08:23:42;;;;;;;12.60;5.70;;;;;;;14.71;100.00;100301.82;215343;1297;141490;-87
2023/08/09 08:28:42;;;;;;;10.70;5.60;;;;;;;14.73;100.00;100304.81;215826;1293;139355;-89
2023/08/09 08:33:45;;;;;;;12.00;5.40;;;;;;;14.78;100.00;100305.09;215338;1293;139916;-86
2023/08/09 08:38:46;;;;;;;11.30;5.10;;;;;;;14.78;100.00;100311.89;215935;1297;96621;-87
2023/08/09 08:43:47;;;;;;;11.10;5.40;;;;;;;14.81;100.00;100320.33;215397;1298;142071;-89
2023/08/09 08:48:48;;;;;;;10.70;5.20;;;;;;;14.92;100.00;100324.67;215858;1293;139234;-88
2023/08/09 08:53:49;;;;;;;11.00;5.60;;;;;;;14.92;100.00;100331.89;215339;1293;142059;-86
2023/08/09 08:58:50;;;;;;;11.90;5.60;;;;;;;14.95;100.00;100334.63;215919;1293;139201;-94
2023/08/09 09:03:50;;;;;;;9.20;4.70;;;;;;;15.02;100.00;100340.83;215287;1297;139458;-90
2023/08/09 09:08:59;;;;;;;11.20;5.20;;;;;;;15.09;100.00;100341.55;215921;1298;96701;-92
2023/08/09 09:14:00;;;;;;;9.60;5.10;;;;;;;15.17;100.00;100343.15;215421;1294;221976;-91
2023/08/09 09:19:00;;;;;;;11.30;5.30;;;;;;;15.24;100.00;100342.20;215323;1297;141518;-90
2023/08/09 09:24:09;;;;;;;11.10;5.10;;;;;;;15.28;100.00;100340.98;215980;1297;137602;-93
2023/08/09 09:29:11;;;;;;;9.70;5.20;;;;;;;15.27;100.00;100337.35;215536;1293;141903;-95
2023/08/09 09:34:14;;;;;;;9.60;5.50;;;;;;;15.36;100.00;100332.07;216209;1294;138716;-93
2023/08/09 09:39:14;;;;;;;11.70;5.70;;;;;;;15.41;100.00;100329.71;215802;1293;141129;-94
2023/08/09 09:44:23;;;;;;;9.30;5.60;;;;;;;15.49;100.00;100328.92;216049;1297;107383;-95
2023/08/09 09:49:24;;;;;;;12.50;6.40;;;;;;;15.63;100.00;100328.21;215621;1294;141516;-95
2023/08/09 09:54:28;;;;;;;10.70;5.80;;;;;;;15.85;100.00;100323.67;216037;1297;228242;-90
2023/08/09 09:59:28;;;;;;;7.30;3.80;;;;;;;16.07;100.00;100327.06;215380;1297;139429;-92
2023/08/09 10:04:29;;;;;;;8.60;3.30;;;;;;;16.26;100.00;100329.17;216006;1297;140283;-94
2023/08/09 10:09:31;;;;;;;7.70;3.00;;;;;;;16.69;100.00;100326.83;215642;1293;140603;-90
2023/08/09 10:14:32;;;;;;;4.90;2.40;;;;;;;17.32;100.00;100326.49;216226;1297;97192;-87
2023/08/09 10:19:33;;;;;;;4.20;2.20;;;;;;;17.71;99.14;100329.38;215478;1292;141447;-86
2023/08/09 10:24:42;;;;;;;4.30;1.80;;;;;;;18.15;99.30;100332.29;215997;1297;138876;-87
2023/08/09 10:29:43;;;;;;;5.00;2.30;;;;;;;18.79;96.63;100331.34;215371;1297;140342;-88
2023/08/09 10:34:48;;;;;;;5.70;2.10;;;;;;;19.31;94.49;100328.77;215972;1295;138415;-86
2023/08/09 10:40:16;;;;;;;7.30;2.20;;;;;;;19.71;90.62;100328.55;215375;1292;139750;-92
2023/08/09 10:45:16;;;;;;;3.80;1.60;;;;;;;19.95;82.84;100324.48;215940;1297;138549;-90
2023/08/09 10:50:18;;;;;;;4.40;2.00;;;;;;;20.02;85.01;100328.52;215714;1293;141915;-87
2023/08/09 10:55:18;;;;;;;6.70;2.30;;;;;;;20.41;83.42;100323.04;216043;1295;138772;-86
2023/08/09 11:00:21;;;;;;;3.30;1.40;;;;;;;20.90;83.03;100320.05;215690;1292;140095;-83
2023/08/09 11:05:23;;;;;;;3.90;1.70;;;;;;;21.28;79.57;100324.21;215998;1294;139211;-89
2023/08/09 11:10:36;;;;;;;6.80;1.50;;;;;;;21.42;75.68;100325.02;215620;1296;141054;-87
2023/08/09 11:15:37;;;;;;;3.80;1.70;;;;;;;21.60;76.74;100330.37;216151;1292;137941;-91
2023/08/09 11:20:39;;;;;;;7.80;7.00;;;;;;;21.77;75.81;100325.15;217555;1291;139635;-95
2023/08/09 11:25:41;;;;;;;5.80;1.90;;;;;;;21.92;73.01;100324.27;217938;1291;138380;-92
2023/08/09 11:30:56;;;;;;;3.60;1.60;;;;;;;21.91;70.35;100324.39;216248;1294;140225;-96
2023/08/09 11:36:01;;;;;;;2.60;1.40;;;;;;;21.86;69.56;100323.85;215783;1291;138445;-94
2023/08/09 11:41:02;;;;;;;3.50;1.50;;;;;;;21.87;70.69;100326.14;214328;1293;139813;-92
2023/08/09 11:46:03;;;;;;;2.80;1.40;;;;;;;22.01;71.80;100324.80;214324;1292;138438;-92
2023/08/09 11:56:52;;;;;;;3.10;1.50;;;;;;;22.53;66.21;100332.86;215665;1294;102648;-94
2023/08/09 12:01:57;;;;;;;4.20;1.30;;;;;;;22.52;65.60;100339.00;214925;1291;140514;-96
2023/08/09 12:07:01;;;;;;;2.30;1.30;;;;;;;22.50;64.28;100332.64;215788;1294;137545;-93
2023/08/09 12:12:38;;;;;;;3.80;1.30;;;;;;;22.48;65.68;100330.95;214240;1291;139971;-92
2023/08/09 12:17:40;;;;;;;3.90;1.40;;;;;;;22.49;64.26;100332.92;215654;1291;138215;-95
2023/08/09 12:22:47;;;;;;;3.10;1.10;;;;;;;22.33;61.27;100327.98;216056;1290;138433;-95
2023/08/09 12:27:48;;;;;;;5.70;1.40;;;;;;;22.13;62.81;100330.99;216778;1291;96215;-94
2023/08/09 15:58:13;;;;;;;5.70;1.30;;;;;;;21.39;60.02;100460.56;215836;1294;111342;-90
2023/08/09 16:03:14;;;;;;;6.20;1.30;;;;;;;21.21;61.30;100466.89;215450;1293;139335;-89
2023/08/09 16:08:14;;;;;;;4.10;1.20;;;;;;;21.19;61.74;100473.36;215866;1294;139965;-91
2023/08/09 16:13:15;;;;;;;5.20;1.40;;;;;;;21.18;62.44;100478.41;215836;1292;142007;-91
2023/08/09 16:18:16;;;;;;;4.40;1.50;;;;;;;21.12;62.09;100479.79;216402;1292;138135;-91
2023/08/09 16:23:17;;;;;;;8.00;1.80;;;;;;;21.06;62.24;100494.39;215831;1292;139803;-91
2023/08/09 16:28:17;;;;;;;4.00;1.60;;;;;;;20.92;61.14;100498.10;216191;1295;96616;-90
2023/08/09 16:33:18;;;;;;;5.70;1.80;;;;;;;20.81;62.25;100501.36;215789;1292;138822;-90
2023/08/09 16:38:18;;;;;;;3.00;1.30;;;;;;;20.70;62.87;100506.33;216126;1292;138844;-87
2023/08/09 16:43:19;;;;;;;7.70;1.50;;;;;;;20.54;63.69;100508.04;215907;1292;139384;-90
2023/08/09 16:48:19;;;;;;;4.60;1.50;;;;;;;20.43;64.40;100512.85;216173;1292;137878;-89
2023/08/09 16:53:21;;;;;;;6.70;1.60;;;;;;;20.31;64.77;100514.20;215689;1292;140384;-90
2023/08/09 16:58:22;;;;;;;6.40;1.50;;;;;;;20.20;65.77;100518.59;216313;1292;97049;-88
2023/08/09 17:03:22;;;;;;;2.90;1.20;;;;;;;20.08;64.52;100523.29;215628;1292;142465;-90
2023/08/09 17:08:23;;;;;;;7.10;1.60;;;;;;;19.92;64.02;100526.89;216188;1292;138514;-90
2023/08/09 17:13:23;;;;;;;6.80;1.70;;;;;;;19.73;63.94;100524.48;215641;1292;141284;-90
2023/08/09 17:18:24;;;;;;;5.60;1.60;;;;;;;19.59;65.64;100525.38;216214;1292;137996;-91
2023/08/09 17:23:24;;;;;;;7.30;1.60;;;;;;;19.43;66.73;100527.77;215714;1292;139936;-90
2023/08/09 17:28:25;;;;;;;5.40;1.90;;;;;;;19.28;67.55;100533.05;216246;1292;96699;-89
2023/08/09 17:33:26;;;;;;;4.00;1.40;;;;;;;19.12;68.12;100531.64;215802;1292;140003;-88
2023/08/09 17:38:31;;;;;;;3.30;1.60;;;;;;;18.96;68.92;100536.70;216145;1292;137898;-91
2023/08/09 17:43:32;;;;;;;4.90;1.40;;;;;;;18.73;69.82;100534.21;215671;1292;139545;-90
2023/08/09 17:48:33;;;;;;;6.10;2.30;;;;;;;18.54;70.92;100535.56;216178;1292;137844;-88
2023/08/09 17:53:34;;;;;;;7.30;3.20;;;;;;;18.36;71.53;100540.92;215714;1292;139272;-88
2023/08/09 17:58:34;;;;;;;6.90;3.20;;;;;;;18.19;72.58;100540.48;216328;1292;96548;-88
2023/08/09 18:03:36;;;;;;;7.50;2.70;;;;;;;18.01;74.11;100549.80;215703;1292;139126;-90
2023/08/09 18:08:36;;;;;;;7.20;2.60;;;;;;;17.83;75.68;100555.53;216418;1295;138420;-89
2023/08/09 18:13:37;;;;;;;8.50;2.50;;;;;;;17.69;76.44;100565.36;215721;1292;139042;-88
2023/08/09 18:18:38;;;;;;;5.90;2.40;;;;;;;17.56;76.92;100571.70;216126;1291;138821;-88
2023/08/09 18:23:38;;;;;;;6.80;2.50;;;;;;;17.39;77.97;100579.73;215648;1292;139771;-87
2023/08/09 18:28:38;;;;;;;6.00;2.40;;;;;;;17.19;78.78;100584.36;216177;1292;96956;-89
2023/08/09 18:33:39;;;;;;;7.60;2.40;;;;;;;17.04;79.82;100585.83;215599;1292;141685;-86
2023/08/09 18:38:39;;;;;;;9.60;2.20;;;;;;;16.86;80.50;100596.69;216316;1292;138638;-87
2023/08/09 18:43:41;;;;;;;4.70;1.90;;;;;;;16.69;81.10;100604.67;215627;1292;141193;-88
2023/08/09 18:48:41;;;;;;;5.40;2.30;;;;;;;16.54;81.95;100611.52;216355;1292;138882;-88
2023/08/09 18:53:42;;;;;;;6.10;2.30;;;;;;;16.38;83.14;100615.93;215852;1292;140203;-86
2023/08/09 18:58:42;;;;;;;6.90;2.60;;;;;;;16.18;84.36;100621.42;216159;1292;96679;-86
2023/08/09 19:03:43;;;;;;;8.90;2.40;;;;;;;16.01;85.22;100629.80;215654;1292;140162;-88
2023/08/09 19:08:43;;;;;;;6.00;2.20;;;;;;;15.90;85.84;100631.88;216381;1292;138657;-88
2023/08/09 19:13:44;;;;;;;7.40;2.60;;;;;;;15.80;86.60;100639.55;215826;1294;139598;-88
2023/08/09 19:18:47;;;;;;;6.50;2.50;;;;;;;15.65;87.26;100643.69;216358;1292;139451;-88
2023/08/09 19:23:48;;;;;;;7.90;3.10;;;;;;;15.54;88.12;100652.88;215902;1291;139315;-87
2023/08/09 19:28:48;;;;;;;6.40;1.90;;;;;;;15.41;88.73;100652.95;216434;1295;104442;-90
2023/08/09 19:33:49;;;;;;;7.50;2.70;;;;;;;15.31;88.94;100661.45;215631;1292;139968;-88
2023/08/09 19:38:49;;;;;;;10.60;2.80;;;;;;;15.21;89.63;100660.61;216083;1292;138391;-88
2023/08/09 19:43:50;;;;;;;7.60;2.60;;;;;;;15.12;90.57;100666.35;215866;1292;141906;-89
2023/08/09 19:48:51;;;;;;;8.40;2.80;;;;;;;15.01;91.64;100667.41;216287;1292;138573;-88
2023/08/09 19:53:52;;;;;;;6.30;2.70;;;;;;;14.90;92.43;100673.70;215627;1292;140204;-89
2023/08/09 19:58:53;;;;;;;7.10;3.00;;;;;;;14.78;93.01;100679.17;216266;1292;96569;-89
2023/08/09 20:03:53;;;;;;;6.60;3.10;;;;;;;14.69;93.52;100680.55;215524;1292;139053;-86
2023/08/09 20:08:54;;;;;;;10.20;3.20;;;;;;;14.61;94.09;100682.39;216120;1292;138773;-88
2023/08/09 20:13:54;;;;;;;9.80;4.10;;;;;;;14.53;94.42;100691.27;215817;1292;139260;-88
2023/08/09 20:18:55;;;;;;;8.90;4.40;;;;;;;14.47;95.01;100691.58;216183;1291;138603;-88
2023/08/09 20:23:55;;;;;;;13.30;4.40;;;;;;;14.41;95.69;100693.24;215604;1292;139472;-87
2023/08/09 20:28:55;;;;;;;11.60;4.20;;;;;;;14.35;96.16;100688.97;216282;1292;96597;-87
2023/08/09 20:33:56;;;;;;;10.40;4.40;;;;;;;14.30;97.11;100694.42;215647;1292;139847;-88
2023/08/09 20:38:57;;;;;;;12.80;4.90;;;;;;;14.25;96.81;100697.91;216124;1292;139357;-89
2023/08/09 20:43:58;;;;;;;9.50;4.40;;;;;;;14.24;96.74;100703.14;215734;1292;138924;-88
2023/08/09 20:48:58;;;;;;;10.40;5.10;;;;;;;14.22;96.89;100704.39;215749;1292;140903;-88
2023/08/09 20:53:59;;;;;;;13.30;5.90;;;;;;;14.21;96.24;100707.78;216084;1292;138770;-89
2023/08/09 20:59:03;;;;;;;15.20;7.20;;;;;;;14.20;96.77;100707.73;215652;1292;141664;-87
2023/08/09 21:04:03;;;;;;;32.50;19.30;;;;;;;14.18;97.38;100710.38;216196;1293;96535;-90
2023/08/09 21:09:04;;;;;;;21.40;12.30;;;;;;;14.18;97.30;100712.02;215822;1292;139953;-90
2023/08/09 21:14:05;;;;;;;15.70;6.20;;;;;;;14.16;98.12;100722.23;216112;1292;139422;-88
2023/08/09 21:19:05;;;;;;;12.30;5.00;;;;;;;14.13;98.81;100734.95;215652;1292;140237;-90
2023/08/09 21:24:06;;;;;;;9.50;4.20;;;;;;;14.09;98.52;100734.88;216149;1292;138993;-90
2023/08/09 21:29:06;;;;;;;13.30;4.60;;;;;;;14.06;97.72;100743.48;215565;1292;139605;-88
2023/08/09 21:34:07;;;;;;;10.30;4.80;;;;;;;14.04;97.44;100745.38;216304;1292;96607;-90
2023/08/09 21:39:07;;;;;;;9.20;3.90;;;;;;;14.02;97.26;100743.95;215713;1292;140395;-89
2023/08/09 21:44:08;;;;;;;11.40;4.50;;;;;;;13.98;97.46;100744.19;216104;1293;139224;-89
2023/08/09 21:49:08;;;;;;;11.70;5.20;;;;;;;13.94;98.21;100743.46;215748;1292;141616;-91
2023/08/09 21:54:09;;;;;;;11.30;5.10;;;;;;;13.89;98.07;100746.06;215775;1297;301935;-88
2023/08/09 21:59:09;;;;;;;10.40;4.50;;;;;;;13.83;98.49;100745.71;215329;1297;141022;-86
2023/08/09 22:04:10;;;;;;;16.90;6.90;;;;;;;13.77;98.61;100744.20;215999;1297;96620;-91
2023/08/09 22:09:10;;;;;;;12.30;5.60;;;;;;;13.72;98.82;100741.74;215383;1295;141332;-89
2023/08/09 22:14:11;;;;;;;10.00;5.10;;;;;;;13.67;99.86;100738.88;215966;1297;139756;-87
2023/08/09 22:19:11;;;;;;;9.70;4.00;;;;;;;13.58;99.73;100744.84;215434;1292;142290;-89
2023/08/09 22:24:12;;;;;;;10.40;4.90;;;;;;;13.51;99.85;100743.63;215919;1293;138772;-87
2023/08/09 22:29:14;;;;;;;10.70;4.60;;;;;;;13.46;99.83;100742.90;215311;1292;142456;-89
2023/08/09 22:34:21;;;;;;;11.70;4.20;;;;;;;13.40;99.96;100744.45;215857;1294;97099;-89
2023/08/09 22:39:22;;;;;;;10.60;4.00;;;;;;;13.34;100.00;100748.77;215321;1297;140984;-88
2023/08/09 22:44:22;;;;;;;11.10;4.80;;;;;;;13.28;100.00;100748.65;215829;1297;139167;-89
2023/08/09 22:49:23;;;;;;;9.90;3.90;;;;;;;13.23;100.00;100749.66;215393;1292;140551;-88
2023/08/09 22:54:24;;;;;;;14.40;5.60;;;;;;;13.19;100.00;100751.37;215883;1292;138734;-90
2023/08/09 22:59:24;;;;;;;10.00;3.90;;;;;;;13.15;100.00;100755.14;215223;1297;139872;-89
2023/08/09 23:04:25;;;;;;;13.70;4.10;;;;;;;13.08;100.00;100758.96;215934;1292;96664;-89
2023/08/09 23:09:25;;;;;;;9.30;4.20;;;;;;;13.02;100.00;100770.62;215426;1297;140960;-90
2023/08/09 23:14:26;;;;;;;10.10;4.30;;;;;;;12.96;100.00;100778.78;215969;1296;138905;-89
2023/08/09 23:19:28;;;;;;;7.10;3.30;;;;;;;12.91;100.00;100786.29;215293;1297;139739;-88
2023/08/09 23:24:28;;;;;;;11.40;4.40;;;;;;;12.85;100.00;100790.42;215965;1297;138940;-89
2023/08/09 23:29:28;;;;;;;7.70;3.50;;;;;;;12.80;100.00;100795.05;215358;1297;139866;-90
2023/08/09 23:34:29;;;;;;;10.50;4.20;;;;;;;12.76;100.00;100794.70;215879;1297;96581;-89
2023/08/09 23:39:30;;;;;;;12.10;4.90;;;;;;;12.73;100.00;100800.67;215235;1293;140909;-91
2023/08/09 23:44:30;;;;;;;10.80;4.00;;;;;;;12.67;100.00;100803.16;215860;1293;139477;-88
2023/08/09 23:49:31;;;;;;;9.70;4.40;;;;;;;12.61;100.00;100807.20;215356;1293;140762;-90
2023/08/09 23:54:31;;;;;;;11.10;4.60;;;;;;;12.54;100.00;100811.95;215922;1297;138791;-88
2023/08/09 23:59:32;;;;;;;10.90;3.70;;;;;;;12.47;100.00;100811.02;215413;1295;141178;-88
